Time;durP1;ratioP1;P1;durP2;ratioP2;P2;SDS_P1;SDS_P2;PMS_P1;PMS_P2;Temp;Humidity;BMP_temperature;BMP_pressure;BME280_temperature;BME280_humidity;BME280_pressure;Samples;Min_cycle;Max_cycle;Signal;HPM_P1;HPM_P2
2021/12/15 00:00:57;;;;;;;22.50;8.75;;;9.20;99.90;;;;;;4988234;28;20102;-71
2021/12/15 00:03:24;;;;;;;36.88;11.32;;;9.20;99.90;;;;;;4987568;28;20034;-71
2021/12/15 00:05:50;;;;;;;31.13;9.90;;;9.30;99.90;;;;;;4986659;28;20034;-72
2021/12/15 00:08:16;;;;;;;25.45;8.75;;;9.30;99.90;;;;;;4986882;28;20029;-71
2021/12/15 00:10:44;;;;;;;34.13;9.80;;;9.30;99.90;;;;;;4986819;28;20026;-70
2021/12/15 00:13:12;;;;;;;26.52;9.57;;;9.30;99.90;;;;;;4987697;28;20037;-71
2021/12/15 00:15:38;;;;;;;25.83;8.40;;;9.30;99.90;;;;;;4987857;28;20081;-73
2021/12/15 00:18:04;;;;;;;38.20;9.77;;;9.30;99.90;;;;;;4986329;28;20082;-72
2021/12/15 00:20:30;;;;;;;26.10;8.90;;;9.30;99.90;;;;;;4987638;28;20114;-71
2021/12/15 00:22:57;;;;;;;33.22;10.57;;;9.30;99.90;;;;;;4987657;28;20038;-72
2021/12/15 00:25:26;;;;;;;31.45;10.23;;;9.30;99.90;;;;;;4987767;28;20067;-70
2021/12/15 00:27:52;;;;;;;28.98;8.60;;;9.30;99.90;;;;;;4985833;28;20050;-73
2021/12/15 00:30:19;;;;;;;23.45;8.98;;;9.30;99.90;;;;;;4987640;28;20035;-71
2021/12/15 00:32:44;;;;;;;25.08;9.35;;;9.30;99.90;;;;;;4986976;28;20034;-71
2021/12/15 00:35:10;;;;;;;29.77;10.43;;;9.40;99.90;;;;;;4986242;28;20031;-72
2021/12/15 00:37:37;;;;;;;32.78;10.90;;;9.40;99.90;;;;;;4987520;28;20034;-73
2021/12/15 00:40:05;;;;;;;26.08;10.90;;;9.40;99.90;;;;;;4987548;28;20114;-73
2021/12/15 00:42:32;;;;;;;33.88;10.48;;;9.40;99.90;;;;;;4985644;28;20030;-73
2021/12/15 00:44:57;;;;;;;28.75;10.15;;;9.40;99.90;;;;;;4987098;28;20066;-73
2021/12/15 00:47:23;;;;;;;41.22;9.88;;;9.40;99.90;;;;;;4985459;28;20058;-73
2021/12/15 00:49:49;;;;;;;31.98;10.75;;;9.50;99.90;;;;;;4987285;28;20031;-71
2021/12/15 00:52:14;;;;;;;35.17;10.05;;;9.40;99.90;;;;;;4987122;28;20026;-70
2021/12/15 00:54:50;;;;;;;33.83;9.15;;;9.40;99.90;;;;;;4987120;28;20074;-71
2021/12/15 00:57:21;;;;;;;30.17;10.60;;;9.40;99.90;;;;;;4988094;28;20424;-72
2021/12/15 00:59:47;;;;;;;27.63;11.32;;;9.40;99.90;;;;;;4987210;28;20030;-72
2021/12/15 01:02:12;;;;;;;25.05;9.60;;;9.40;99.90;;;;;;4986741;28;20035;-73
2021/12/15 01:04:38;;;;;;;38.75;12.00;;;9.40;99.90;;;;;;4987132;28;20034;-72
2021/12/15 01:07:08;;;;;;;28.85;10.68;;;9.40;99.90;;;;;;4986645;28;20026;-73
2021/12/15 01:09:44;;;;;;;31.23;10.75;;;9.50;99.90;;;;;;4986291;28;20023;-72
2021/12/15 01:12:21;;;;;;;36.17;10.60;;;9.40;99.90;;;;;;4986471;28;20033;-72
2021/12/15 01:20:36;;;;;;;31.35;10.43;;;9.50;99.90;;;;;;4986057;28;20066;-71
2021/12/15 01:23:07;;;;;;;35.20;10.10;;;9.50;99.90;;;;;;4986739;28;20033;-73
2021/12/15 01:25:51;;;;;;;30.58;10.43;;;9.50;99.90;;;;;;4986492;28;20031;-73
2021/12/15 01:28:17;;;;;;;40.95;11.57;;;9.50;99.90;;;;;;4984820;28;20030;-72
2021/12/15 01:30:45;;;;;;;43.30;11.23;;;9.50;99.90;;;;;;4986267;28;20027;-70
2021/12/15 01:33:11;;;;;;;46.92;13.00;;;9.50;99.90;;;;;;4986257;28;20034;-73
2021/12/15 01:35:40;;;;;;;39.00;10.85;;;9.50;99.90;;;;;;4986230;28;20023;-72
2021/12/15 01:38:07;;;;;;;43.13;12.05;;;9.50;99.90;;;;;;4985960;28;20077;-73
2021/12/15 01:40:37;;;;;;;42.80;11.02;;;9.50;99.90;;;;;;4986481;28;20035;-73
2021/12/15 01:43:16;;;;;;;43.67;12.18;;;9.50;99.90;;;;;;4986332;28;20019;-73
2021/12/15 01:48:34;;;;;;;34.22;10.68;;;9.50;99.90;;;;;;4986181;28;20069;-72
2021/12/15 01:51:00;;;;;;;35.45;12.52;;;9.50;99.90;;;;;;4986113;28;20030;-72
2021/12/15 01:53:27;;;;;;;46.90;12.73;;;9.50;99.90;;;;;;4985929;28;20080;-72
2021/12/15 01:55:53;;;;;;;54.13;14.70;;;9.50;99.90;;;;;;4985615;28;20126;-72
2021/12/15 01:58:19;;;;;;;54.17;13.00;;;9.50;99.90;;;;;;4984359;28;20066;-71
2021/12/15 02:00:54;;;;;;;56.30;13.45;;;9.50;99.90;;;;;;4985680;28;20046;-72
2021/12/15 02:03:20;;;;;;;43.17;12.10;;;9.50;99.90;;;;;;4985746;28;20058;-73
2021/12/15 02:05:45;;;;;;;53.58;15.65;;;9.50;99.90;;;;;;4986002;28;20030;-73
2021/12/15 02:08:12;;;;;;;63.90;12.75;;;9.50;99.90;;;;;;4984418;28;20046;-74
2021/12/15 02:10:41;;;;;;;50.25;13.93;;;9.60;99.90;;;;;;4984434;28;20460;-72
2021/12/15 02:13:09;;;;;;;41.75;12.23;;;9.60;99.90;;;;;;4985747;28;20026;-71
2021/12/15 02:15:40;;;;;;;42.60;13.18;;;9.60;99.90;;;;;;4985954;28;20087;-70
2021/12/15 02:18:11;;;;;;;43.55;12.82;;;9.60;99.90;;;;;;4985665;28;20074;-71
2021/12/15 02:20:40;;;;;;;65.38;13.75;;;9.60;99.90;;;;;;4985081;28;20078;-70
2021/12/15 02:23:10;;;;;;;42.95;12.10;;;9.60;99.90;;;;;;4984956;28;20031;-71
2021/12/15 02:25:36;;;;;;;48.10;12.18;;;9.60;99.90;;;;;;4983828;28;20054;-71
2021/12/15 02:28:06;;;;;;;36.75;11.50;;;9.60;99.90;;;;;;4985823;28;20030;-71
2021/12/15 02:38:27;;;;;;;53.67;14.25;;;9.60;99.90;;;;;;4989660;28;20037;-71
2021/12/15 02:40:53;;;;;;;51.47;13.77;;;9.60;99.90;;;;;;4989151;28;20054;-72
2021/12/15 02:43:18;;;;;;;51.03;13.93;;;9.60;99.90;;;;;;4988415;28;20038;-72
2021/12/15 02:45:44;;;;;;;47.90;14.80;;;9.60;99.90;;;;;;4989071;28;20053;-72
2021/12/15 02:48:09;;;;;;;57.00;14.98;;;9.60;99.90;;;;;;4989008;28;20070;-72
2021/12/15 02:50:37;;;;;;;52.55;13.73;;;9.60;99.90;;;;;;4989265;28;20113;-73
2021/12/15 02:53:04;;;;;;;44.42;13.13;;;9.60;99.90;;;;;;4988813;28;20031;-72
2021/12/15 02:55:31;;;;;;;48.75;12.90;;;9.60;99.90;;;;;;4989382;28;20026;-72
2021/12/15 02:57:57;;;;;;;46.33;13.95;;;9.60;99.90;;;;;;4989382;28;20026;-71
2021/12/15 03:00:27;;;;;;;47.42;14.55;;;9.70;99.90;;;;;;4988810;28;20031;-74
2021/12/15 03:04:02;;;;;;;50.38;15.35;;;9.70;99.90;;;;;;4988936;28;20082;-72
2021/12/15 03:05:55;;;;;;;62.15;14.90;;;9.60;99.90;;;;;;4988282;28;20046;-73
2021/12/15 03:08:45;;;;;;;48.15;13.95;;;9.70;99.90;;;;;;4987249;28;20035;-74
2021/12/15 03:16:35;;;;;;;56.15;14.63;;;9.70;99.90;;;;;;4989088;28;20530;-75
2021/12/15 03:19:01;;;;;;;57.90;15.32;;;9.70;99.90;;;;;;4988026;28;20026;-72
2021/12/15 03:21:27;;;;;;;62.40;14.60;;;9.70;99.90;;;;;;4988482;28;20059;-72
2021/12/15 03:24:13;;;;;;;58.67;14.55;;;9.70;99.90;;;;;;4988349;28;20019;-71
2021/12/15 03:26:49;;;;;;;52.20;15.30;;;9.70;99.90;;;;;;4989060;28;20034;-71
2021/12/15 03:35:48;;;;;;;;;;;9.70;99.90;;;;;;4988196;28;20038;-71
2021/12/15 03:37:43;;;;;;;51.78;13.73;;;9.70;99.90;;;;;;4987675;28;19906;-72
2021/12/15 03:40:22;;;;;;;67.18;16.35;;;9.80;99.90;;;;;;4986941;28;20166;-72
2021/12/15 03:42:59;;;;;;;58.35;16.23;;;9.80;99.90;;;;;;4986367;28;20038;-69
2021/12/15 03:45:32;;;;;;;45.60;12.82;;;9.80;99.90;;;;;;4988058;28;20054;-71
2021/12/15 03:48:02;;;;;;;49.33;14.00;;;9.80;99.90;;;;;;4988780;28;20848;-71
2021/12/15 03:50:28;;;;;;;62.90;13.32;;;9.80;99.90;;;;;;4988199;28;20158;-72
2021/12/15 03:52:55;;;;;;;50.53;16.50;;;9.80;99.90;;;;;;4986960;28;20073;-72
2021/12/15 03:55:24;;;;;;;48.92;15.30;;;9.90;99.90;;;;;;4988438;28;20041;-70
2021/12/15 03:57:50;;;;;;;47.22;13.75;;;9.80;99.90;;;;;;4988209;28;20029;-71
2021/12/15 04:00:18;;;;;;;55.15;14.75;;;9.90;99.90;;;;;;4988331;28;20054;-72
2021/12/15 04:02:45;;;;;;;51.33;14.52;;;9.90;99.90;;;;;;4987859;28;20055;-72
2021/12/15 04:05:13;;;;;;;39.75;13.60;;;9.90;99.90;;;;;;4987809;28;20038;-73
2021/12/15 04:07:39;;;;;;;41.25;14.80;;;9.90;99.90;;;;;;4987964;28;20613;-74
2021/12/15 04:10:11;;;;;;;56.65;15.15;;;9.90;99.90;;;;;;4986084;28;20027;-71
2021/12/15 04:12:37;;;;;;;50.72;14.88;;;9.90;99.90;;;;;;4987924;28;20023;-71
2021/12/15 04:15:25;;;;;;;42.30;14.75;;;9.90;99.90;;;;;;4987958;28;20078;-72
2021/12/15 04:17:53;;;;;;;54.17;13.43;;;9.90;99.90;;;;;;4988021;28;20522;-71
2021/12/15 04:20:22;;;;;;;43.22;13.30;;;9.90;99.90;;;;;;4987087;28;20158;-72
2021/12/15 04:22:48;;;;;;;44.83;14.63;;;10.00;99.90;;;;;;4986410;28;20054;-71
2021/12/15 04:25:20;;;;;;;50.60;14.63;;;9.90;99.90;;;;;;4987672;28;20110;-72
2021/12/15 04:28:01;;;;;;;43.35;13.93;;;10.00;99.90;;;;;;4987367;28;20086;-70
2021/12/15 04:30:38;;;;;;;43.72;13.20;;;10.00;99.90;;;;;;4987343;28;20065;-72
2021/12/15 04:33:15;;;;;;;43.00;13.88;;;10.00;99.90;;;;;;4987459;28;20046;-73
2021/12/15 04:35:42;;;;;;;31.67;11.25;;;10.00;99.90;;;;;;4985917;28;20034;-73
2021/12/15 04:38:09;;;;;;;42.88;12.30;;;10.00;99.90;;;;;;4986337;28;20114;-70
2021/12/15 04:40:35;;;;;;;33.22;10.70;;;10.00;99.90;;;;;;4985929;28;20047;-72
2021/12/15 04:43:02;;;;;;;42.88;12.88;;;10.00;99.90;;;;;;4987119;28;20038;-70
2021/12/15 04:45:29;;;;;;;37.33;12.30;;;10.00;99.90;;;;;;4985756;28;20034;-73
2021/12/15 04:47:57;;;;;;;31.58;10.13;;;10.00;99.90;;;;;;4987138;28;20035;-71
2021/12/15 04:50:25;;;;;;;26.38;10.85;;;10.00;99.90;;;;;;4986638;28;20053;-71
2021/12/15 04:52:59;;;;;;;42.70;12.48;;;10.00;99.90;;;;;;4987218;28;20038;-72
2021/12/15 04:55:27;;;;;;;33.08;11.68;;;10.00;99.90;;;;;;4987186;28;20141;-70
2021/12/15 04:57:53;;;;;;;43.33;11.98;;;10.00;99.90;;;;;;4986885;28;20091;-71
2021/12/15 05:00:22;;;;;;;37.35;11.70;;;10.00;99.90;;;;;;4987061;28;20023;-72
2021/12/15 05:02:51;;;;;;;36.47;10.68;;;10.00;99.90;;;;;;4986759;28;20022;-72
2021/12/15 05:05:19;;;;;;;31.83;11.68;;;10.00;99.90;;;;;;4986719;28;20113;-72
2021/12/15 05:07:45;;;;;;;31.77;10.02;;;10.00;99.90;;;;;;4986738;28;20023;-72
2021/12/15 05:10:11;;;;;;;34.08;10.57;;;10.00;99.90;;;;;;4986655;28;20038;-71
2021/12/15 05:12:38;;;;;;;29.17;10.38;;;10.00;99.90;;;;;;4986526;28;20022;-73
2021/12/15 05:15:18;;;;;;;42.47;11.05;;;10.00;99.90;;;;;;4986795;28;20058;-72
2021/12/15 05:17:43;;;;;;;25.45;9.52;;;10.00;99.90;;;;;;4986334;28;20026;-71
2021/12/15 05:20:11;;;;;;;28.90;9.27;;;10.10;99.90;;;;;;4986195;28;20391;-71
2021/12/15 05:22:38;;;;;;;26.50;10.90;;;10.10;99.90;;;;;;4986493;28;20066;-72
2021/12/15 05:25:06;;;;;;;46.67;10.48;;;10.00;99.90;;;;;;4986270;28;20037;-71
2021/12/15 05:27:32;;;;;;;34.33;9.95;;;10.10;99.90;;;;;;4984680;28;20022;-71
2021/12/15 05:29:57;;;;;;;31.60;10.82;;;10.00;99.90;;;;;;4984908;28;20042;-70
2021/12/15 05:32:24;;;;;;;28.55;10.43;;;10.10;99.90;;;;;;4986641;28;20479;-70
2021/12/15 05:34:53;;;;;;;24.25;9.95;;;10.00;99.90;;;;;;4986408;28;20030;-71
2021/12/15 05:37:21;;;;;;;27.35;10.38;;;10.00;99.90;;;;;;4985539;28;20026;-72
2021/12/15 05:39:49;;;;;;;33.00;10.93;;;10.10;99.90;;;;;;4986118;28;20078;-71
2021/12/15 05:42:15;;;;;;;23.70;8.40;;;10.10;99.90;;;;;;4985615;28;20054;-70
2021/12/15 05:44:41;;;;;;;29.02;8.13;;;10.10;99.90;;;;;;4986213;28;20027;-71
2021/12/15 05:47:07;;;;;;;23.65;8.40;;;10.10;99.90;;;;;;4986138;28;20041;-71
2021/12/15 05:49:33;;;;;;;30.98;8.95;;;10.10;99.90;;;;;;4986430;28;20119;-69
2021/12/15 05:51:59;;;;;;;25.95;8.63;;;10.10;99.90;;;;;;4985991;28;20030;-70
2021/12/15 05:54:26;;;;;;;32.60;8.73;;;10.10;99.90;;;;;;4985942;28;20027;-70
2021/12/15 05:56:52;;;;;;;22.17;8.40;;;10.10;99.90;;;;;;4985413;28;20042;-70
2021/12/15 05:59:18;;;;;;;24.15;8.13;;;10.00;99.90;;;;;;4984286;28;20034;-70
2021/12/15 06:01:43;;;;;;;24.58;8.88;;;10.10;99.90;;;;;;4984820;28;20074;-70
2021/12/15 06:04:10;;;;;;;24.77;9.00;;;10.10;99.90;;;;;;4985701;28;20026;-69
2021/12/15 06:06:37;;;;;;;27.73;9.25;;;10.10;99.90;;;;;;4983545;28;20058;-72
2021/12/15 06:09:06;;;;;;;29.40;8.85;;;10.10;99.90;;;;;;4984871;28;20031;-71
2021/12/15 06:11:32;;;;;;;26.90;8.23;;;10.10;99.90;;;;;;4985476;28;20053;-72
2021/12/15 06:13:58;;;;;;;36.75;9.52;;;10.10;99.90;;;;;;4985232;28;20022;-71
2021/12/15 06:16:24;;;;;;;30.67;9.73;;;10.10;99.90;;;;;;4985494;28;20094;-70
2021/12/15 06:18:51;;;;;;;24.33;8.50;;;10.10;99.90;;;;;;4985362;28;20039;-71
2021/12/15 06:21:19;;;;;;;27.00;9.30;;;10.10;99.90;;;;;;4985591;28;20534;-70
2021/12/15 06:23:44;;;;;;;27.27;8.95;;;10.10;99.90;;;;;;4985689;28;20066;-71
2021/12/15 06:26:10;;;;;;;22.20;9.27;;;10.10;99.90;;;;;;4985810;28;20042;-71
2021/12/15 06:28:37;;;;;;;23.23;9.20;;;10.10;99.90;;;;;;4985530;28;20454;-71
2021/12/15 06:31:07;;;;;;;29.52;10.38;;;10.10;99.90;;;;;;4985595;28;20023;-71
2021/12/15 06:33:39;;;;;;;35.83;10.18;;;10.10;99.90;;;;;;4984837;28;20130;-70
2021/12/15 06:36:11;;;;;;;28.08;10.00;;;10.10;99.90;;;;;;4985738;28;20029;-71
2021/12/15 06:38:40;;;;;;;34.40;10.82;;;10.10;99.90;;;;;;4985662;28;20030;-72
2021/12/15 06:41:09;;;;;;;26.08;8.90;;;10.10;99.90;;;;;;4985752;28;20130;-71
2021/12/15 06:43:36;;;;;;;28.92;9.80;;;10.10;99.90;;;;;;4985444;28;20030;-71
2021/12/15 06:59:29;;;;;;;29.60;10.13;;;10.10;99.90;;;;;;4985974;28;20074;-73
2021/12/15 07:01:55;;;;;;;25.23;9.35;;;10.10;99.90;;;;;;4984376;28;20039;-71
2021/12/15 07:04:22;;;;;;;32.83;10.05;;;10.10;99.90;;;;;;4981489;28;20035;-71
2021/12/15 07:06:49;;;;;;;29.30;10.35;;;10.10;99.90;;;;;;4965724;28;20043;-72
2021/12/15 07:09:16;;;;;;;33.42;9.65;;;10.10;99.90;;;;;;4979954;28;20027;-72
2021/12/15 07:11:42;;;;;;;29.40;10.68;;;10.10;99.90;;;;;;4964375;29;20027;-72
2021/12/15 07:14:09;;;;;;;32.70;11.15;;;10.10;99.90;;;;;;4981924;28;20090;-71
2021/12/15 07:16:40;;;;;;;30.92;11.05;;;10.10;99.90;;;;;;4985277;28;20026;-72
2021/12/15 07:19:18;;;;;;;30.73;11.60;;;10.10;99.90;;;;;;4991826;28;20026;-73
2021/12/15 07:21:52;;;;;;;33.97;11.05;;;10.10;99.90;;;;;;5008119;28;20038;-72
2021/12/15 07:24:18;;;;;;;30.13;10.93;;;10.10;99.90;;;;;;4992067;28;20031;-69
2021/12/15 07:26:43;;;;;;;25.05;10.15;;;10.10;99.90;;;;;;4988022;28;20042;-74
2021/12/15 07:29:09;;;;;;;28.38;10.68;;;10.10;99.90;;;;;;4987305;28;20022;-71
2021/12/15 07:31:36;;;;;;;34.10;11.23;;;10.10;99.90;;;;;;4987594;28;20054;-70
2021/12/15 07:34:03;;;;;;;38.03;11.23;;;10.10;99.90;;;;;;4988791;28;20070;-69
2021/12/15 07:36:29;;;;;;;38.78;13.05;;;10.10;99.90;;;;;;4988599;28;20396;-74
2021/12/15 07:38:59;;;;;;;34.70;10.77;;;10.10;99.90;;;;;;4987136;28;20038;-74
2021/12/15 07:41:30;;;;;;;33.60;10.38;;;10.10;99.90;;;;;;4984623;28;20043;-72
2021/12/15 07:43:59;;;;;;;34.45;12.10;;;10.10;99.90;;;;;;4982077;28;20030;-73
2021/12/15 07:46:34;;;;;;;32.65;10.68;;;10.10;99.90;;;;;;4986038;28;20023;-73
2021/12/15 07:49:00;;;;;;;36.10;10.82;;;10.10;99.90;;;;;;4976125;28;20063;-71
2021/12/15 07:51:26;;;;;;;35.25;11.63;;;10.10;99.90;;;;;;4977968;28;20102;-71
2021/12/15 07:53:51;;;;;;;37.80;10.25;;;10.10;99.90;;;;;;4984029;28;20031;-73
2021/12/15 07:56:18;;;;;;;36.42;13.35;;;10.10;99.90;;;;;;4986872;28;20035;-71
2021/12/15 07:58:44;;;;;;;41.10;12.85;;;10.10;99.90;;;;;;4986606;28;20340;-72
2021/12/15 08:01:11;;;;;;;34.90;12.95;;;10.10;99.90;;;;;;4987216;28;20042;-71
2021/12/15 08:03:38;;;;;;;30.50;10.88;;;10.10;99.90;;;;;;4987767;28;20023;-73
2021/12/15 08:06:06;;;;;;;35.63;12.07;;;10.10;99.90;;;;;;4988211;28;20023;-73
2021/12/15 08:08:34;;;;;;;45.88;14.25;;;10.10;99.90;;;;;;4988029;28;20122;-71
2021/12/15 08:11:00;;;;;;;36.60;12.43;;;10.10;99.90;;;;;;4985821;28;20046;-72
2021/12/15 08:13:28;;;;;;;42.10;14.95;;;10.10;99.90;;;;;;4984656;28;20031;-74
2021/12/15 08:15:54;;;;;;;31.92;11.82;;;10.10;99.90;;;;;;4986812;28;20041;-73
2021/12/15 08:18:20;;;;;;;36.03;12.77;;;10.10;99.90;;;;;;4986566;28;20037;-71
2021/12/15 08:20:46;;;;;;;32.83;13.02;;;10.10;99.90;;;;;;4987231;28;20054;-72
2021/12/15 08:23:12;;;;;;;38.25;12.98;;;10.10;99.90;;;;;;4987192;28;20041;-73
2021/12/15 08:25:39;;;;;;;45.38;14.70;;;10.10;99.90;;;;;;4986458;28;20067;-72
2021/12/15 08:28:13;;;;;;;37.80;12.38;;;10.10;99.90;;;;;;4985149;28;20046;-75
2021/12/15 08:30:40;;;;;;;;;;;10.10;99.90;;;;;;4976813;28;20390;-74
2021/12/15 08:33:10;;;;;;;33.13;12.20;;;10.10;99.90;;;;;;4985626;28;19906;-72
2021/12/15 08:35:41;;;;;;;45.03;14.65;;;10.10;99.90;;;;;;4985679;28;20368;-72
2021/12/15 08:38:09;;;;;;;41.28;14.02;;;10.10;99.90;;;;;;4984946;28;20081;-74
2021/12/15 08:40:35;;;;;;;38.30;13.25;;;10.10;99.90;;;;;;4985169;28;20030;-74
2021/12/15 08:43:01;;;;;;;49.80;13.48;;;10.10;99.90;;;;;;4986033;28;20023;-72
2021/12/15 08:45:27;;;;;;;35.80;12.73;;;10.10;99.90;;;;;;4986839;28;20415;-72
2021/12/15 08:47:55;;;;;;;41.88;13.27;;;10.10;99.90;;;;;;4986006;28;20037;-74
2021/12/15 08:50:29;;;;;;;43.30;13.63;;;10.10;99.90;;;;;;4986774;28;20023;-73
2021/12/15 08:52:56;;;;;;;35.55;13.48;;;10.10;99.90;;;;;;4985554;28;20090;-73
2021/12/15 08:55:23;;;;;;;38.53;14.45;;;10.20;99.90;;;;;;4986739;28;20158;-72
2021/12/15 08:57:52;;;;;;;48.15;15.65;;;10.20;99.90;;;;;;4987234;28;20031;-74
2021/12/15 09:00:22;;;;;;;50.67;17.58;;;10.20;99.90;;;;;;4986967;28;20030;-72
2021/12/15 09:02:48;;;;;;;35.17;13.32;;;10.20;99.90;;;;;;4985393;28;20094;-75
2021/12/15 09:05:20;;;;;;;43.05;14.68;;;10.20;99.90;;;;;;4986425;28;20117;-73
2021/12/15 09:07:47;;;;;;;44.03;14.57;;;10.20;99.90;;;;;;4986918;28;20479;-73
2021/12/15 09:10:14;;;;;;;43.60;15.20;;;10.20;99.90;;;;;;4985324;28;20031;-73
2021/12/15 09:12:46;;;;;;;32.92;11.77;;;10.20;99.90;;;;;;4981326;28;20483;-75
2021/12/15 09:15:12;;;;;;;42.95;13.38;;;10.20;99.90;;;;;;4980470;28;20034;-72
2021/12/15 09:17:42;;;;;;;46.47;13.68;;;10.20;99.90;;;;;;4983246;28;20085;-75
2021/12/15 09:20:15;;;;;;;36.65;14.18;;;10.20;99.90;;;;;;4981189;28;20051;-70
2021/12/15 09:22:41;;;;;;;47.75;14.55;;;10.20;99.90;;;;;;4965932;29;20070;-71
2021/12/15 09:25:09;;;;;;;49.67;13.23;;;10.20;99.90;;;;;;4966165;28;20027;-71
2021/12/15 09:27:35;;;;;;;57.78;16.58;;;10.20;99.90;;;;;;4980848;28;20058;-71
2021/12/15 09:30:02;;;;;;;41.78;15.88;;;10.20;99.90;;;;;;4985672;28;20090;-71
2021/12/15 09:32:28;;;;;;;40.35;15.10;;;10.20;99.90;;;;;;4986320;28;20043;-73
2021/12/15 09:34:54;;;;;;;43.35;14.95;;;10.30;99.90;;;;;;4986510;28;20050;-73
2021/12/15 09:37:20;;;;;;;58.88;16.98;;;10.30;99.90;;;;;;4980081;28;20026;-71
2021/12/15 09:39:45;;;;;;;34.45;14.30;;;10.30;99.90;;;;;;5002307;28;20030;-72
2021/12/15 09:42:16;;;;;;;58.13;16.45;;;10.30;99.90;;;;;;5004196;28;20041;-73
2021/12/15 09:44:47;;;;;;;46.35;14.07;;;10.30;99.90;;;;;;4978989;28;20027;-73
2021/12/15 09:47:26;;;;;;;49.60;16.55;;;10.30;99.90;;;;;;4975301;28;20483;-73
2021/12/15 10:19:19;;;;;;;36.97;15.70;;;10.30;99.90;;;;;;4978689;28;20038;-72
2021/12/15 10:22:03;;;;;;;41.28;14.70;;;10.40;99.90;;;;;;4970388;28;20058;-71
2021/12/15 10:24:35;;;;;;;58.22;14.77;;;10.40;99.90;;;;;;4981979;28;20090;-72
2021/12/15 10:27:06;;;;;;;42.83;14.25;;;10.40;99.90;;;;;;4985159;28;20114;-72
2021/12/15 10:29:31;;;;;;;42.38;14.27;;;10.40;99.90;;;;;;4999360;28;20094;-73
2021/12/15 10:32:04;;;;;;;53.17;15.07;;;10.40;99.90;;;;;;5005000;28;20038;-74
2021/12/15 10:34:30;;;;;;;41.78;15.63;;;10.40;99.90;;;;;;5005202;28;20022;-75
2021/12/15 10:36:57;;;;;;;43.42;13.30;;;10.40;99.90;;;;;;5003304;28;20037;-72
2021/12/15 10:39:23;;;;;;;39.03;14.35;;;10.40;99.90;;;;;;5005102;28;20026;-74
2021/12/15 10:41:53;;;;;;;36.03;15.15;;;10.50;99.90;;;;;;5004818;28;20093;-76
2021/12/15 10:44:24;;;;;;;38.67;13.45;;;10.40;99.90;;;;;;4993308;28;20035;-74
2021/12/15 10:46:55;;;;;;;48.05;15.60;;;10.50;99.90;;;;;;4984346;28;20035;-75
2021/12/15 10:49:31;;;;;;;37.63;13.07;;;10.50;99.90;;;;;;4984004;28;20037;-73
2021/12/15 10:52:00;;;;;;;45.67;13.57;;;10.50;99.90;;;;;;4985389;28;20023;-75
2021/12/15 10:54:40;;;;;;;39.20;13.48;;;10.50;99.90;;;;;;4989268;28;20034;-73
2021/12/15 10:57:12;;;;;;;39.67;13.23;;;10.50;99.90;;;;;;4989474;28;20050;-74
2021/12/15 10:59:44;;;;;;;37.65;13.00;;;10.50;99.90;;;;;;4985664;28;20035;-74
2021/12/15 11:02:23;;;;;;;43.15;14.10;;;10.60;99.90;;;;;;4986332;28;20038;-76
2021/12/15 11:04:53;;;;;;;35.42;12.55;;;10.60;99.90;;;;;;4986014;28;20031;-72
2021/12/15 11:07:26;;;;;;;39.08;14.25;;;10.60;99.90;;;;;;4986043;28;20439;-73
2021/12/15 11:10:04;;;;;;;31.27;12.57;;;10.60;99.90;;;;;;4987798;28;20023;-76
2021/12/15 11:12:40;;;;;;;40.60;14.27;;;10.60;99.90;;;;;;4988117;28;20061;-73
2021/12/15 11:15:15;;;;;;;37.20;12.90;;;10.60;99.90;;;;;;4988184;28;20053;-74
2021/12/15 11:17:48;;;;;;;;;;;10.70;99.90;;;;;;4988348;28;20023;-74
2021/12/15 11:20:29;;;;;;;38.03;13.00;;;10.70;99.90;;;;;;4988552;28;19918;-74
2021/12/15 11:23:02;;;;;;;40.72;14.93;;;10.70;99.90;;;;;;4988785;28;20031;-74
2021/12/15 11:25:49;;;;;;;43.97;13.82;;;10.70;99.90;;;;;;4988226;28;20031;-74
2021/12/15 11:28:29;;;;;;;40.33;13.88;;;10.70;99.90;;;;;;4987689;28;20081;-74
2021/12/15 11:31:04;;;;;;;41.55;14.35;;;10.70;99.90;;;;;;4982584;28;20026;-74
2021/12/15 11:33:41;;;;;;;34.63;12.95;;;10.70;99.90;;;;;;4969165;28;20058;-73
2021/12/15 11:36:16;;;;;;;36.60;12.80;;;10.70;99.90;;;;;;4968251;28;20135;-74
2021/12/15 11:39:00;;;;;;;31.27;10.27;;;10.70;99.90;;;;;;4967803;28;20031;-74
2021/12/15 11:41:37;;;;;;;23.45;11.38;;;10.70;99.90;;;;;;4969256;28;20031;-74
2021/12/15 11:44:05;;;;;;;32.25;12.07;;;10.70;99.90;;;;;;4969420;28;20100;-73
2021/12/15 11:46:32;;;;;;;39.45;12.68;;;10.70;99.90;;;;;;4969055;28;20043;-73
2021/12/15 11:49:19;;;;;;;42.25;12.25;;;10.70;99.90;;;;;;4974878;28;20058;-74
2021/12/15 11:52:00;;;;;;;41.00;11.32;;;10.70;99.90;;;;;;4988391;28;20027;-73
2021/12/15 11:54:33;;;;;;;30.98;11.88;;;10.70;99.90;;;;;;4981044;28;20041;-74
2021/12/15 11:57:05;;;;;;;31.65;11.02;;;10.70;99.90;;;;;;4975198;28;20050;-74
2021/12/15 11:59:38;;;;;;;32.42;12.40;;;10.70;99.90;;;;;;4979174;28;20039;-75
2021/12/15 12:02:08;;;;;;;33.67;12.63;;;10.80;99.90;;;;;;4978480;28;20091;-75
2021/12/15 12:04:38;;;;;;;26.33;11.90;;;10.80;99.90;;;;;;4980376;28;20759;-76
2021/12/15 12:07:19;;;;;;;26.95;10.93;;;10.80;99.90;;;;;;4984424;28;20027;-73
2021/12/15 12:09:48;;;;;;;33.03;13.18;;;10.90;99.90;;;;;;4987691;28;20035;-75
2021/12/15 12:12:16;;;;;;;39.05;12.30;;;10.90;99.90;;;;;;4986040;28;20060;-75
2021/12/15 12:14:49;;;;;;;31.55;10.95;;;10.90;99.90;;;;;;4982541;28;20423;-74
2021/12/15 12:17:19;;;;;;;32.58;11.32;;;10.90;99.90;;;;;;4986405;28;20118;-76
2021/12/15 12:20:06;;;;;;;32.50;11.52;;;11.00;99.90;;;;;;4984516;28;20043;-76
2021/12/15 12:22:36;;;;;;;29.30;11.57;;;10.90;99.90;;;;;;4984265;28;20129;-74
2021/12/15 12:25:11;;;;;;;30.88;10.80;;;10.90;99.90;;;;;;4987247;28;20093;-76
2021/12/15 12:27:38;;;;;;;26.88;11.43;;;10.90;99.90;;;;;;4986643;28;20034;-75
2021/12/15 12:30:11;;;;;;;36.53;12.05;;;10.90;99.90;;;;;;4986415;28;20126;-74
2021/12/15 12:32:38;;;;;;;31.15;11.57;;;10.90;99.90;;;;;;4987726;28;20022;-75
2021/12/15 12:35:08;;;;;;;32.63;10.75;;;10.80;99.90;;;;;;4987803;28;20034;-75
2021/12/15 12:37:36;;;;;;;32.85;11.95;;;10.80;99.90;;;;;;4986323;28;20039;-73
2021/12/15 12:40:24;;;;;;;37.10;10.52;;;10.80;99.90;;;;;;4986899;28;20113;-74
2021/12/15 12:42:50;;;;;;;28.65;10.15;;;10.70;99.90;;;;;;4987226;28;20030;-75
2021/12/15 12:45:41;;;;;;;34.42;11.98;;;10.70;99.90;;;;;;4987329;28;20049;-74
2021/12/15 12:59:48;;;;;;;24.63;9.88;;;11.00;99.90;;;;;;4979204;28;20384;-75
2021/12/15 13:02:46;;;;;;;30.75;10.98;;;11.10;99.90;;;;;;4974925;28;20106;-75
2021/12/15 13:05:43;;;;;;;27.38;10.32;;;11.30;99.90;;;;;;4972781;28;20039;-75
2021/12/15 13:08:14;;;;;;;27.13;9.85;;;11.50;99.90;;;;;;4985481;28;20031;-74
2021/12/15 13:11:07;;;;;;;23.83;9.48;;;11.50;99.90;;;;;;4983179;28;20031;-76
2021/12/15 13:13:49;;;;;;;17.65;7.70;;;11.40;99.90;;;;;;4982245;28;20027;-75
2021/12/15 13:16:50;;;;;;;24.02;8.13;;;11.30;99.90;;;;;;4982216;28;20058;-74
2021/12/15 13:19:24;;;;;;;30.38;8.85;;;11.30;99.90;;;;;;4984364;28;20030;-74
2021/12/15 13:31:03;;;;;;;17.75;7.80;;;11.00;99.90;;;;;;4987616;28;20061;-74
2021/12/15 13:33:35;;;;;;;19.23;6.80;;;11.00;99.90;;;;;;4983313;28;20030;-74
2021/12/15 13:36:14;;;;;;;18.67;7.70;;;11.00;99.90;;;;;;4980853;28;20118;-75
2021/12/15 13:38:58;;;;;;;18.20;7.22;;;11.00;99.90;;;;;;4983763;28;20363;-77
2021/12/15 13:44:17;;;;;;;27.05;7.57;;;11.00;99.90;;;;;;4983778;28;20031;-74
2021/12/15 13:46:55;;;;;;;17.40;6.43;;;11.00;99.90;;;;;;4985366;28;20049;-73
2021/12/15 13:49:40;;;;;;;20.08;7.32;;;11.00;99.90;;;;;;4978765;28;20031;-72
2021/12/15 13:52:16;;;;;;;23.08;6.85;;;11.00;99.90;;;;;;4983433;28;20031;-74
2021/12/15 13:54:43;;;;;;;16.20;7.60;;;11.00;99.90;;;;;;4985226;28;20037;-75
2021/12/15 13:57:12;;;;;;;13.27;6.40;;;11.00;99.90;;;;;;4985147;28;20039;-75
2021/12/15 13:59:47;;;;;;;17.75;6.22;;;10.90;99.90;;;;;;4984883;28;20031;-73
2021/12/15 14:02:52;;;;;;;19.48;7.60;;;10.90;99.90;;;;;;4978952;28;20071;-75
2021/12/15 14:05:28;;;;;;;20.98;8.98;;;10.90;99.90;;;;;;4974265;28;20199;-72
2021/12/15 14:08:13;;;;;;;21.40;8.75;;;10.90;99.90;;;;;;4974466;28;20046;-73
2021/12/15 14:10:54;;;;;;;20.48;8.43;;;10.90;99.90;;;;;;4985158;28;20057;-74
2021/12/15 14:13:31;;;;;;;18.08;7.50;;;10.80;99.90;;;;;;4982243;28;20126;-74
2021/12/15 14:15:56;;;;;;;20.58;8.23;;;10.90;99.90;;;;;;4984920;28;20454;-74
2021/12/15 14:18:29;;;;;;;11.88;6.00;;;10.80;99.90;;;;;;4984569;28;20031;-74
2021/12/15 14:21:15;;;;;;;19.20;7.65;;;10.80;99.90;;;;;;4975908;28;20165;-76
2021/12/15 14:23:47;;;;;;;19.67;7.05;;;10.80;99.90;;;;;;4984862;28;20031;-74